Terminal Aerodrome Forecast
Issued by NWS

Current Version | Previous Version | Text Only | Print | Product List | Glossary Off
Versions: 1 2 3 4 5 6 7 8 9 10 11 12 13 14 15 16 17 18 19 20 21 22 23 24 25 26 27 28 29 30 31 32 33 34 35 36 37 38 39 40 41 42 43

000
FTUS41 KRNK 230543 CCA
TAFLWB
TAF COR
KLWB 230543Z 2306/2406 00000KT 3SM BR SCT001 SCT035 OVC060
      TEMPO 2306/2310 1SM BR BKN001
     FM231000 00000KT 2SM BR SCT001 BKN035 OVC070
      TEMPO 2310/2313 1/2SM FG VV001
     FM231330 VRB03KT P6SM SCT015 OVC025
     FM231800 04005KT P6SM VCSH BKN028 OVC045
     FM240200 06004KT P6SM OVC018=

USA.gov is the U.S. government's official web portal to all federal, state and local government web resources and services.